createdAt,value
2023-05-01T00:01:56.920Z,12.20
2023-05-01T00:04:25.144Z,12.20
2023-05-01T00:06:53.408Z,12.20
2023-05-01T00:09:21.430Z,12.30
2023-05-01T00:11:49.585Z,12.30
2023-05-01T00:14:25.273Z,12.40
2023-05-01T00:16:53.319Z,12.40
2023-05-01T00:19:21.395Z,12.40
2023-05-01T00:21:51.627Z,12.40
2023-05-01T00:24:20.224Z,12.40
2023-05-01T00:26:49.335Z,12.40
2023-05-01T00:29:18.332Z,12.40
2023-05-01T00:31:58.269Z,12.30
2023-05-01T00:34:28.886Z,12.30
2023-05-01T00:36:59.078Z,12.20
2023-05-01T00:39:34.459Z,12.20
2023-05-01T00:42:02.485Z,12.20
2023-05-01T00:44:38.320Z,12.20
2023-05-01T00:47:07.723Z,12.20
2023-05-01T00:49:35.960Z,12.10
2023-05-01T00:52:04.022Z,12.10
2023-05-01T00:54:32.161Z,12.10
2023-05-01T00:57:00.521Z,12.20
2023-05-01T00:59:29.114Z,12.20
2023-05-01T01:01:59.468Z,12.10
2023-05-01T01:04:31.719Z,12.10
2023-05-01T01:07:11.557Z,12.20
2023-05-01T01:09:55.907Z,12.10
2023-05-01T01:12:28.392Z,12.10
2023-05-01T01:15:05.579Z,12.00
2023-05-01T01:17:39.741Z,12.00
2023-05-01T01:20:42.098Z,11.90
2023-05-01T01:23:30.486Z,11.80
2023-05-01T01:26:25.913Z,11.70
2023-05-01T01:29:31.531Z,11.60
2023-05-01T01:32:10.435Z,11.40
2023-05-01T01:34:48.333Z,11.30
2023-05-01T01:37:25.918Z,11.30
2023-05-01T01:40:01.244Z,11.20
2023-05-01T01:42:39.003Z,11.20
2023-05-01T01:45:13.951Z,11.20
2023-05-01T01:47:43.670Z,11.10
2023-05-01T01:50:19.795Z,11.10
2023-05-01T01:52:50.556Z,11.00
2023-05-01T01:55:28.345Z,11.00
2023-05-01T01:57:58.387Z,11.00
2023-05-01T02:00:27.119Z,11.10
2023-05-01T02:02:56.382Z,11.00
2023-05-01T02:05:28.141Z,11.00
2023-05-01T02:07:57.717Z,11.00
2023-05-01T02:10:28.182Z,10.90
2023-05-01T02:13:02.002Z,11.00
2023-05-01T02:15:31.227Z,11.00
2023-05-01T02:18:00.557Z,11.00
2023-05-01T02:20:30.982Z,11.00
2023-05-01T02:23:00.344Z,11.00
2023-05-01T02:25:31.710Z,11.00
2023-05-01T02:28:03.750Z,11.00
2023-05-01T02:30:33.903Z,11.00
2023-05-01T02:33:02.118Z,10.90
2023-05-01T02:35:33.952Z,10.90
2023-05-01T02:38:04.718Z,10.80
2023-05-01T02:40:33.283Z,10.80
2023-05-01T02:43:04.353Z,10.90
2023-05-01T02:45:32.834Z,10.90
2023-05-01T02:48:24.834Z,10.90
2023-05-01T02:50:55.616Z,11.00
2023-05-01T02:53:23.944Z,11.00
2023-05-01T02:55:52.385Z,11.00
2023-05-01T02:58:21.772Z,11.00
2023-05-01T03:00:50.890Z,11.10
2023-05-01T03:03:19.082Z,11.00
2023-05-01T03:05:47.591Z,11.00
2023-05-01T03:08:17.489Z,11.00
2023-05-01T03:10:45.501Z,11.00
2023-05-01T03:13:13.520Z,11.00
2023-05-01T03:15:42.433Z,11.00
2023-05-01T03:18:10.651Z,11.00
2023-05-01T03:20:38.761Z,11.00
2023-05-01T03:23:07.800Z,11.00
2023-05-01T03:25:38.419Z,11.00
2023-05-01T03:28:06.681Z,11.00
2023-05-01T03:30:45.144Z,11.00
2023-05-01T03:33:13.193Z,10.90
2023-05-01T03:35:41.325Z,10.90
2023-05-01T03:38:09.783Z,11.00
2023-05-01T03:40:39.194Z,11.00
2023-05-01T03:43:07.272Z,11.10
2023-05-01T03:45:38.822Z,11.10
2023-05-01T03:48:07.386Z,11.00
2023-05-01T03:50:35.426Z,11.00
2023-05-01T03:53:03.616Z,11.00
2023-05-01T03:55:34.811Z,10.90
2023-05-01T03:58:04.303Z,10.90
2023-05-01T04:00:33.714Z,10.90
2023-05-01T04:03:08.937Z,10.80
2023-05-01T04:05:37.288Z,10.80
2023-05-01T04:08:05.705Z,10.80
2023-05-01T04:10:33.898Z,10.70
2023-05-01T04:13:03.433Z,10.70
2023-05-01T04:15:39.790Z,10.60
2023-05-01T04:18:08.188Z,10.60
2023-05-01T04:21:00.716Z,10.60
2023-05-01T04:23:28.680Z,10.60
2023-05-01T04:25:56.682Z,10.60
2023-05-01T04:28:31.119Z,10.60
2023-05-01T04:30:59.200Z,10.60
2023-05-01T04:33:28.340Z,10.60
2023-05-01T04:35:56.783Z,10.70
2023-05-01T04:38:24.847Z,10.70
2023-05-01T04:41:08.058Z,10.70
2023-05-01T04:43:37.548Z,10.80
2023-05-01T04:46:05.820Z,10.70
2023-05-01T04:48:36.368Z,10.70
2023-05-01T04:51:04.659Z,10.60
2023-05-01T04:53:37.479Z,10.60
2023-05-01T04:56:06.166Z,10.60
2023-05-01T04:58:34.144Z,10.50
2023-05-01T05:01:03.587Z,10.50
2023-05-01T05:03:31.768Z,10.50
2023-05-01T05:06:00.065Z,10.60
2023-05-01T05:08:39.301Z,10.60
2023-05-01T05:11:07.401Z,10.60
2023-05-01T05:13:49.915Z,10.70
2023-05-01T05:16:19.265Z,10.70
2023-05-01T05:18:47.528Z,10.70
2023-05-01T05:21:21.421Z,10.60
2023-05-01T05:23:49.405Z,10.70
2023-05-01T05:26:18.086Z,10.60
2023-05-01T05:28:46.237Z,10.60
2023-05-01T05:31:14.422Z,10.60
2023-05-01T05:33:44.682Z,10.50
2023-05-01T05:36:17.907Z,10.60
2023-05-01T05:38:46.022Z,10.60
2023-05-01T05:41:13.972Z,10.60
2023-05-01T05:43:45.463Z,10.70
2023-05-01T05:46:13.616Z,10.70
2023-05-01T05:48:43.096Z,10.70
2023-05-01T05:51:17.120Z,10.80
2023-05-01T05:53:45.298Z,10.80
2023-05-01T05:56:14.402Z,10.80
2023-05-01T05:58:42.344Z,10.80
2023-05-01T06:01:11.670Z,10.80
2023-05-01T06:03:41.697Z,10.80
2023-05-01T06:06:11.834Z,10.90
2023-05-01T06:08:45.352Z,10.90
2023-05-01T06:11:13.359Z,10.90
2023-05-01T06:13:52.694Z,11.00
2023-05-01T06:16:30.014Z,11.00
2023-05-01T06:19:01.266Z,11.10
2023-05-01T06:21:41.232Z,11.10
2023-05-01T06:24:09.188Z,11.00
2023-05-01T06:26:37.211Z,11.00
2023-05-01T06:29:05.378Z,11.10
2023-05-01T06:31:33.748Z,11.10
2023-05-01T06:34:01.759Z,11.10
2023-05-01T06:36:29.791Z,11.10
2023-05-01T06:39:05.607Z,11.20
2023-05-01T06:41:33.710Z,11.30
2023-05-01T06:44:05.142Z,11.30
2023-05-01T06:46:33.248Z,11.30
2023-05-01T06:49:01.776Z,11.40
2023-05-01T06:51:30.313Z,11.40
2023-05-01T06:54:02.294Z,11.40
2023-05-01T06:56:34.766Z,11.40
2023-05-01T06:59:03.431Z,11.40
2023-05-01T07:01:35.441Z,11.50
2023-05-01T07:04:04.047Z,11.40
2023-05-01T07:06:32.555Z,11.40
2023-05-01T07:09:00.596Z,11.50
2023-05-01T07:11:29.936Z,11.40
2023-05-01T07:14:09.269Z,11.40
2023-05-01T07:16:38.472Z,11.40
2023-05-01T07:19:06.481Z,11.50
2023-05-01T07:21:34.561Z,11.50
2023-05-01T07:24:02.594Z,11.50
2023-05-01T07:26:31.839Z,11.60
2023-05-01T07:28:59.898Z,11.70
2023-05-01T07:31:30.550Z,11.50
2023-05-01T07:33:59.589Z,11.50
2023-05-01T07:36:28.245Z,11.60
2023-05-01T07:38:59.003Z,11.60
2023-05-01T07:41:27.099Z,11.70
2023-05-01T07:43:55.150Z,11.60
2023-05-01T07:46:23.334Z,11.60
2023-05-01T07:48:52.705Z,11.70
2023-05-01T07:51:33.762Z,11.90
2023-05-01T07:54:04.405Z,12.00
2023-05-01T07:56:32.864Z,12.00
2023-05-01T07:59:00.905Z,12.10
2023-05-01T08:01:29.092Z,12.10
2023-05-01T08:04:01.702Z,12.10
2023-05-01T08:06:29.755Z,12.20
2023-05-01T08:09:06.987Z,12.20
2023-05-01T08:11:37.127Z,12.20
2023-05-01T08:14:10.299Z,12.20
2023-05-01T08:16:38.743Z,12.20
2023-05-01T08:19:08.166Z,12.30
2023-05-01T08:21:47.285Z,12.30
2023-05-01T08:24:15.484Z,12.40
2023-05-01T08:26:43.608Z,12.40
2023-05-01T08:29:11.743Z,12.30
2023-05-01T08:31:39.894Z,12.40
2023-05-01T08:34:09.770Z,12.50
2023-05-01T08:36:38.300Z,12.50
2023-05-01T08:39:06.415Z,12.40
2023-05-01T08:41:39.626Z,12.50
2023-05-01T08:44:09.533Z,12.40
2023-05-01T08:46:49.932Z,12.50
2023-05-01T08:49:20.761Z,12.40
2023-05-01T08:51:56.985Z,12.30
2023-05-01T08:54:32.127Z,12.40
2023-05-01T08:57:04.596Z,12.40
2023-05-01T08:59:35.054Z,12.40
2023-05-01T09:02:09.796Z,12.40
2023-05-01T09:04:52.200Z,12.50
2023-05-01T09:07:20.311Z,12.60
2023-05-01T09:09:48.281Z,12.60
2023-05-01T09:12:23.034Z,12.70
2023-05-01T09:14:51.723Z,12.70
2023-05-01T09:17:23.484Z,12.80
2023-05-01T09:19:58.537Z,12.90
2023-05-01T09:22:27.213Z,13.10
2023-05-01T09:25:05.498Z,13.20
2023-05-01T09:27:36.144Z,13.30
2023-05-01T09:30:30.239Z,13.40
2023-05-01T09:33:10.942Z,13.50
2023-05-01T09:35:54.831Z,13.50
2023-05-01T09:38:26.174Z,13.60
2023-05-01T09:41:06.352Z,13.60
2023-05-01T09:43:34.728Z,13.70
2023-05-01T09:46:07.824Z,13.60
2023-05-01T09:48:38.908Z,13.60
2023-05-01T09:51:24.129Z,13.60
2023-05-01T09:54:01.908Z,13.80
2023-05-01T09:56:33.897Z,14.00
2023-05-01T09:59:25.209Z,14.10
2023-05-01T10:01:59.594Z,14.00
2023-05-01T10:04:36.552Z,14.10
2023-05-01T10:07:15.518Z,14.10
2023-05-01T10:09:43.564Z,14.10
2023-05-01T10:12:26.188Z,14.30
2023-05-01T10:14:57.826Z,14.50
2023-05-01T10:17:35.322Z,14.80
2023-05-01T10:20:04.284Z,14.80
2023-05-01T10:22:33.817Z,14.90
2023-05-01T10:25:04.701Z,14.90
2023-05-01T10:27:47.351Z,14.90
2023-05-01T10:30:22.246Z,14.90
2023-05-01T10:33:06.347Z,15.10
2023-05-01T10:35:38.238Z,15.30
2023-05-01T10:38:10.930Z,15.50
2023-05-01T10:40:51.690Z,15.40
2023-05-01T10:43:25.905Z,15.20
2023-05-01T10:46:26.977Z,15.00
2023-05-01T10:48:59.410Z,14.90
2023-05-01T10:51:30.462Z,14.80
2023-05-01T10:54:28.157Z,14.90
2023-05-01T10:57:01.276Z,14.90
2023-05-01T11:00:14.328Z,15.00
2023-05-01T11:02:49.425Z,15.10
2023-05-01T11:05:23.611Z,15.20
2023-05-01T11:08:34.801Z,15.50
2023-05-01T11:11:40.396Z,15.70
2023-05-01T11:14:12.364Z,15.60
2023-05-01T11:16:49.113Z,15.40
2023-05-01T11:19:50.446Z,15.30
2023-05-01T11:22:20.915Z,15.10
2023-05-01T11:24:49.967Z,14.90
2023-05-01T11:27:18.362Z,14.70
2023-05-01T11:30:00.336Z,14.50
2023-05-01T11:32:30.489Z,14.20
2023-05-01T11:34:58.969Z,14.20
2023-05-01T11:37:44.258Z,14.00
2023-05-01T11:40:23.078Z,13.90
2023-05-01T11:43:02.453Z,14.00
2023-05-01T11:45:32.765Z,14.10
2023-05-01T11:48:05.554Z,14.20
2023-05-01T11:50:35.541Z,14.20
2023-05-01T11:53:15.694Z,14.20
2023-05-01T11:55:52.609Z,14.20
2023-05-01T11:58:33.884Z,14.40
2023-05-01T12:01:03.632Z,14.80
2023-05-01T12:03:42.676Z,15.00
2023-05-01T12:06:13.362Z,15.20
2023-05-01T12:08:45.873Z,15.30
2023-05-01T12:11:21.391Z,15.60
2023-05-01T12:13:50.273Z,15.80
2023-05-01T12:16:19.914Z,15.90
2023-05-01T12:18:49.253Z,16.30
2023-05-01T12:21:28.384Z,16.50
2023-05-01T12:24:10.236Z,16.60
2023-05-01T12:27:01.812Z,16.70
2023-05-01T12:29:41.708Z,16.60
2023-05-01T12:32:18.828Z,16.40
2023-05-01T12:34:47.018Z,16.50
2023-05-01T12:37:15.080Z,16.60
2023-05-01T12:39:49.540Z,16.80
2023-05-01T12:42:18.624Z,16.90
2023-05-01T12:44:46.754Z,17.40
2023-05-01T12:47:17.312Z,17.80
2023-05-01T12:49:45.402Z,18.20
2023-05-01T12:52:13.588Z,17.90
2023-05-01T12:54:45.586Z,17.60
2023-05-01T12:57:15.606Z,17.80
2023-05-01T12:59:46.033Z,17.60
2023-05-01T13:02:19.035Z,17.10
2023-05-01T13:04:49.229Z,16.90
2023-05-01T13:07:19.528Z,16.00
2023-05-01T13:10:01.521Z,15.70
2023-05-01T13:12:47.594Z,15.10
2023-05-01T13:15:27.994Z,14.50
2023-05-01T13:18:05.365Z,13.90
2023-05-01T13:20:38.898Z,13.30
2023-05-01T13:23:18.583Z,13.00
2023-05-01T13:25:47.571Z,12.70
2023-05-01T13:28:20.096Z,12.50
2023-05-01T13:30:48.054Z,12.40
2023-05-01T13:33:35.805Z,12.30
2023-05-01T13:36:14.296Z,12.40
2023-05-01T13:38:53.863Z,12.40
2023-05-01T13:41:23.396Z,12.60
2023-05-01T13:43:53.567Z,12.70
2023-05-01T13:46:23.366Z,12.90
2023-05-01T13:49:04.594Z,13.00
2023-05-01T13:51:36.547Z,13.10
2023-05-01T13:54:07.188Z,13.30
2023-05-01T13:56:36.223Z,13.40
2023-05-01T13:59:04.777Z,13.40
2023-05-01T14:01:32.805Z,13.60
2023-05-01T14:04:03.682Z,13.80
2023-05-01T14:06:31.935Z,13.80
2023-05-01T14:09:01.139Z,13.90
2023-05-01T14:11:30.716Z,13.90
2023-05-01T14:14:01.056Z,14.00
2023-05-01T14:16:37.654Z,14.10
2023-05-01T14:19:07.247Z,14.30
2023-05-01T14:21:41.636Z,14.40
2023-05-01T14:24:10.174Z,14.60
2023-05-01T14:26:43.139Z,14.70
2023-05-01T14:29:23.847Z,15.00
2023-05-01T14:31:52.673Z,14.90
2023-05-01T14:34:29.154Z,14.90
2023-05-01T14:36:58.401Z,15.00
2023-05-01T14:39:27.455Z,15.10
2023-05-01T14:41:58.219Z,15.20
2023-05-01T14:44:28.381Z,15.50
2023-05-01T14:46:56.583Z,15.60
2023-05-01T14:49:26.800Z,15.70
2023-05-01T14:51:55.276Z,15.70
2023-05-01T14:54:47.340Z,15.50
2023-05-01T14:57:18.826Z,15.30
2023-05-01T14:59:50.943Z,15.30
2023-05-01T15:02:19.226Z,15.10
2023-05-01T15:04:48.966Z,15.10
2023-05-01T15:07:33.368Z,15.10
2023-05-01T15:10:03.559Z,14.80
2023-05-01T15:12:31.559Z,14.60
2023-05-01T15:15:00.914Z,13.80
2023-05-01T15:17:30.508Z,12.80
2023-05-01T15:20:11.851Z,12.10
2023-05-01T15:22:41.032Z,11.70
2023-05-01T15:25:21.602Z,11.50
2023-05-01T15:27:50.383Z,11.40
2023-05-01T15:30:18.583Z,11.40
2023-05-01T15:32:46.720Z,11.40
2023-05-01T15:35:16.644Z,11.40
2023-05-01T15:37:44.721Z,11.30
2023-05-01T15:40:13.107Z,11.40
2023-05-01T15:42:43.002Z,11.40
2023-05-01T15:45:11.869Z,11.50
2023-05-01T15:47:39.906Z,11.40
2023-05-01T15:50:12.069Z,11.50
2023-05-01T15:52:49.511Z,11.50
2023-05-01T15:55:18.617Z,11.60
2023-05-01T15:57:48.538Z,11.80
2023-05-01T16:00:25.416Z,12.00
2023-05-01T16:02:53.528Z,12.10
2023-05-01T16:05:22.321Z,12.10
2023-05-01T16:07:54.530Z,12.10
2023-05-01T16:10:30.605Z,12.10
2023-05-01T16:12:59.140Z,12.00
2023-05-01T16:15:27.136Z,12.10
2023-05-01T16:17:55.348Z,12.00
2023-05-01T16:20:25.151Z,11.90
2023-05-01T16:22:54.622Z,11.80
2023-05-01T16:25:22.842Z,11.60
2023-05-01T16:27:59.734Z,11.70
2023-05-01T16:30:28.202Z,11.80
2023-05-01T16:32:56.316Z,11.70
2023-05-01T16:35:28.267Z,11.60
2023-05-01T16:37:57.838Z,11.70
2023-05-01T16:40:26.008Z,11.80
2023-05-01T16:42:56.460Z,11.90
2023-05-01T16:45:33.760Z,11.90
2023-05-01T16:48:01.979Z,11.80
2023-05-01T16:50:30.432Z,11.70
2023-05-01T16:52:59.908Z,11.70
2023-05-01T16:55:28.070Z,11.70
2023-05-01T16:57:56.122Z,11.80
2023-05-01T17:00:24.396Z,11.90
2023-05-01T17:02:55.118Z,11.70
2023-05-01T17:05:23.255Z,11.60
2023-05-01T17:07:52.053Z,11.60
2023-05-01T17:10:21.449Z,11.60
2023-05-01T17:12:49.432Z,11.70
2023-05-01T17:15:18.259Z,11.60
2023-05-01T17:17:54.354Z,11.50
2023-05-01T17:20:26.476Z,11.50
2023-05-01T17:22:54.673Z,11.50
2023-05-01T17:25:24.089Z,11.40
2023-05-01T17:27:52.223Z,11.30
2023-05-01T17:30:20.377Z,11.40
2023-05-01T17:32:52.962Z,11.40
2023-05-01T17:35:21.170Z,11.40
2023-05-01T17:37:57.552Z,11.50
2023-05-01T17:40:27.417Z,11.50
2023-05-01T17:43:08.618Z,11.60
2023-05-01T17:45:46.937Z,11.50
2023-05-01T17:48:15.033Z,11.50
2023-05-01T17:50:52.169Z,11.50
2023-05-01T17:53:20.161Z,11.50
2023-05-01T17:55:49.506Z,11.50
2023-05-01T17:58:17.524Z,11.40
2023-05-01T18:00:45.646Z,11.50
2023-05-01T18:03:14.081Z,11.60
2023-05-01T18:06:08.252Z,11.60
2023-05-01T18:08:50.018Z,11.60
2023-05-01T18:11:19.767Z,11.70
2023-05-01T18:13:48.268Z,11.70
2023-05-01T18:16:17.288Z,11.60
2023-05-01T18:18:45.626Z,11.60
2023-05-01T18:21:14.559Z,11.50
2023-05-01T18:23:42.549Z,11.50
2023-05-01T18:26:10.584Z,11.50
2023-05-01T18:28:40.077Z,11.40
2023-05-01T18:31:08.104Z,11.40
2023-05-01T18:33:36.254Z,11.30
2023-05-01T18:36:04.549Z,11.20
2023-05-01T18:38:32.812Z,11.10
2023-05-01T18:41:00.817Z,11.00
2023-05-01T18:43:28.769Z,10.90
2023-05-01T18:45:58.656Z,10.80
2023-05-01T18:48:26.701Z,10.70
2023-05-01T18:51:08.375Z,10.70
2023-05-01T18:53:36.881Z,10.70
2023-05-01T18:56:05.954Z,10.70
2023-05-01T18:58:34.046Z,10.70
2023-05-01T19:01:03.546Z,10.70
2023-05-01T19:03:39.516Z,10.70
2023-05-01T19:06:10.348Z,10.70
2023-05-01T19:08:38.437Z,10.70
2023-05-01T19:11:07.053Z,10.70
2023-05-01T19:13:35.469Z,10.70
2023-05-01T19:16:05.196Z,10.60
2023-05-01T19:18:37.533Z,10.50
2023-05-01T19:21:05.860Z,10.40
2023-05-01T19:23:41.303Z,10.30
2023-05-01T19:26:09.633Z,10.30
2023-05-01T19:28:38.531Z,10.30
2023-05-01T19:31:09.198Z,10.40
2023-05-01T19:33:39.988Z,10.50
2023-05-01T19:36:11.349Z,10.50
2023-05-01T19:38:46.461Z,10.50
2023-05-01T19:41:15.426Z,10.40
2023-05-01T19:43:43.444Z,10.40
2023-05-01T19:46:18.308Z,10.40
2023-05-01T19:48:52.483Z,10.40
2023-05-01T19:51:24.420Z,10.30
2023-05-01T19:53:53.953Z,10.30
2023-05-01T19:56:31.940Z,10.30
2023-05-01T19:58:59.979Z,10.30
2023-05-01T20:01:31.573Z,10.30
2023-05-01T20:04:00.861Z,10.30
2023-05-01T20:06:28.903Z,10.20
2023-05-01T20:08:59.878Z,10.30
2023-05-01T20:11:30.015Z,10.30
2023-05-01T20:14:13.412Z,10.30
2023-05-01T20:16:54.141Z,10.30
2023-05-01T20:19:29.276Z,10.30
2023-05-01T20:21:59.900Z,10.30
2023-05-01T20:24:30.088Z,10.30
2023-05-01T20:26:59.327Z,10.40
2023-05-01T20:29:28.151Z,10.40
2023-05-01T20:31:57.786Z,10.40
2023-05-01T20:34:25.987Z,10.30
2023-05-01T20:36:57.952Z,10.30
2023-05-01T20:39:26.387Z,10.40
2023-05-01T20:41:57.307Z,10.30
2023-05-01T20:44:32.158Z,10.40
2023-05-01T20:47:01.659Z,10.40
2023-05-01T20:49:40.237Z,10.30
2023-05-01T20:52:09.346Z,10.40
2023-05-01T20:54:38.378Z,10.40
2023-05-01T20:57:07.446Z,10.40
2023-05-01T20:59:37.766Z,10.40
2023-05-01T21:02:08.243Z,10.40
2023-05-01T21:04:47.771Z,10.40
2023-05-01T21:07:20.283Z,10.40
2023-05-01T21:09:49.678Z,10.30
2023-05-01T21:12:18.700Z,10.40
2023-05-01T21:14:46.703Z,10.40
2023-05-01T21:17:20.091Z,10.40
2023-05-01T21:19:49.445Z,10.30
2023-05-01T21:22:23.975Z,10.30
2023-05-01T21:24:54.712Z,10.20
2023-05-01T21:27:24.231Z,10.10
2023-05-01T21:30:01.605Z,10.20
2023-05-01T21:32:33.284Z,10.10
2023-05-01T21:35:02.683Z,10.10
2023-05-01T21:37:33.018Z,10.10
2023-05-01T21:40:02.503Z,10.20
2023-05-01T21:42:32.650Z,10.20
2023-05-01T21:45:02.012Z,10.30
2023-05-01T21:47:37.745Z,10.30
2023-05-01T21:50:06.974Z,10.30
2023-05-01T21:52:35.323Z,10.30
2023-05-01T21:55:05.449Z,10.40
2023-05-01T21:57:33.475Z,10.30
2023-05-01T22:00:02.271Z,10.40
2023-05-01T22:02:40.436Z,10.40
2023-05-01T22:05:09.107Z,10.40
2023-05-01T22:07:40.002Z,10.40
2023-05-01T22:10:10.439Z,10.40
2023-05-01T22:12:39.585Z,10.40
2023-05-01T22:15:15.431Z,10.40
2023-05-01T22:17:45.840Z,10.30
2023-05-01T22:20:19.914Z,10.30
2023-05-01T22:22:51.337Z,10.20
2023-05-01T22:25:21.541Z,10.20
2023-05-01T22:27:52.514Z,10.10
2023-05-01T22:30:20.602Z,10.10
2023-05-01T22:32:50.311Z,9.90
2023-05-01T22:35:18.592Z,9.80
2023-05-01T22:37:46.545Z,9.80
2023-05-01T22:40:14.599Z,9.80
2023-05-01T22:42:42.678Z,9.70
2023-05-01T22:45:11.428Z,9.70
2023-05-01T22:47:46.537Z,9.70
2023-05-01T22:50:24.098Z,9.70
2023-05-01T22:52:54.221Z,9.70
2023-05-01T22:55:29.325Z,9.70
2023-05-01T22:57:59.397Z,9.80
2023-05-01T23:00:30.990Z,9.80
2023-05-01T23:03:00.741Z,9.80
2023-05-01T23:05:35.370Z,9.70
2023-05-01T23:08:09.419Z,9.70
2023-05-01T23:10:42.556Z,9.80
2023-05-01T23:13:18.875Z,9.70
2023-05-01T23:15:53.273Z,9.60
2023-05-01T23:18:25.407Z,9.60
2023-05-01T23:20:57.991Z,9.50
2023-05-01T23:23:37.391Z,9.50
2023-05-01T23:26:18.903Z,9.50
2023-05-01T23:28:51.282Z,9.50
2023-05-01T23:31:23.720Z,9.50
2023-05-01T23:33:52.335Z,9.60
2023-05-01T23:36:31.936Z,9.70
2023-05-01T23:39:00.073Z,9.70
2023-05-01T23:41:35.934Z,9.70
2023-05-01T23:44:12.979Z,9.60
2023-05-01T23:46:53.081Z,9.50
2023-05-01T23:49:21.186Z,9.50
2023-05-01T23:51:58.922Z,9.60
2023-05-01T23:54:30.098Z,9.60
2023-05-01T23:56:58.143Z,9.60
2023-05-01T23:59:29.063Z,9.50
